sensor_id;sensor_type;location;lat;lon;timestamp;P1;durP1;ratioP1;P2;durP2;ratioP2
66327;SDS011;53133;52.862;6.602;2022-09-09T00:04:00;13.27;;;8.10;;
66327;SDS011;53133;52.862;6.602;2022-09-09T00:06:43;12.75;;;8.38;;
66327;SDS011;53133;52.862;6.602;2022-09-09T00:09:15;12.40;;;7.88;;
66327;SDS011;53133;52.862;6.602;2022-09-09T00:11:43;14.07;;;8.23;;
66327;SDS011;53133;52.862;6.602;2022-09-09T00:14:14;14.80;;;8.63;;
66327;SDS011;53133;52.862;6.602;2022-09-09T00:17:04;12.13;;;8.70;;
66327;SDS011;53133;52.862;6.602;2022-09-09T00:19:39;14.25;;;8.63;;
66327;SDS011;53133;52.862;6.602;2022-09-09T00:22:22;12.48;;;8.10;;
66327;SDS011;53133;52.862;6.602;2022-09-09T00:24:52;12.32;;;8.52;;
66327;SDS011;53133;52.862;6.602;2022-09-09T00:30:13;10.40;;;7.43;;
66327;SDS011;53133;52.862;6.602;2022-09-09T00:32:47;12.30;;;8.20;;
66327;SDS011;53133;52.862;6.602;2022-09-09T00:35:21;11.30;;;7.60;;
66327;SDS011;53133;52.862;6.602;2022-09-09T00:37:51;16.95;;;8.52;;
66327;SDS011;53133;52.862;6.602;2022-09-09T00:40:24;10.80;;;8.07;;
66327;SDS011;53133;52.862;6.602;2022-09-09T00:43:40;11.15;;;7.88;;
66327;SDS011;53133;52.862;6.602;2022-09-09T00:48:53;11.75;;;7.90;;
66327;SDS011;53133;52.862;6.602;2022-09-09T00:51:45;11.43;;;8.27;;
66327;SDS011;53133;52.862;6.602;2022-09-09T00:56:56;11.30;;;8.10;;
66327;SDS011;53133;52.862;6.602;2022-09-09T00:59:33;13.57;;;9.05;;
66327;SDS011;53133;52.862;6.602;2022-09-09T01:02:21;11.15;;;8.05;;
66327;SDS011;53133;52.862;6.602;2022-09-09T01:04:53;13.48;;;8.35;;
66327;SDS011;53133;52.862;6.602;2022-09-09T01:07:19;14.38;;;8.68;;
66327;SDS011;53133;52.862;6.602;2022-09-09T01:12:25;12.40;;;8.38;;
66327;SDS011;53133;52.862;6.602;2022-09-09T01:15:25;11.38;;;8.05;;
66327;SDS011;53133;52.862;6.602;2022-09-09T01:18:01;14.50;;;8.40;;
66327;SDS011;53133;52.862;6.602;2022-09-09T01:23:36;11.52;;;8.13;;
66327;SDS011;53133;52.862;6.602;2022-09-09T01:29:10;14.18;;;7.90;;
66327;SDS011;53133;52.862;6.602;2022-09-09T01:31:42;13.13;;;7.70;;
66327;SDS011;53133;52.862;6.602;2022-09-09T01:34:17;13.35;;;7.72;;
66327;SDS011;53133;52.862;6.602;2022-09-09T01:36:52;9.85;;;7.00;;
66327;SDS011;53133;52.862;6.602;2022-09-09T01:39:21;9.77;;;7.68;;
66327;SDS011;53133;52.862;6.602;2022-09-09T01:41:47;10.45;;;7.35;;
66327;SDS011;53133;52.862;6.602;2022-09-09T01:44:13;10.80;;;7.57;;
66327;SDS011;53133;52.862;6.602;2022-09-09T01:46:38;11.65;;;7.43;;
66327;SDS011;53133;52.862;6.602;2022-09-09T01:49:05;12.27;;;7.10;;
66327;SDS011;53133;52.862;6.602;2022-09-09T01:51:32;12.00;;;6.72;;
66327;SDS011;53133;52.862;6.602;2022-09-09T01:53:59;12.32;;;6.78;;
66327;SDS011;53133;52.862;6.602;2022-09-09T02:04:45;12.10;;;6.15;;
66327;SDS011;53133;52.862;6.602;2022-09-09T02:12:35;10.77;;;6.97;;
66327;SDS011;53133;52.862;6.602;2022-09-09T02:15:05;10.13;;;6.63;;
66327;SDS011;53133;52.862;6.602;2022-09-09T02:17:36;12.15;;;6.97;;
66327;SDS011;53133;52.862;6.602;2022-09-09T02:20:05;10.52;;;7.15;;
66327;SDS011;53133;52.862;6.602;2022-09-09T02:22:33;11.43;;;6.97;;
66327;SDS011;53133;52.862;6.602;2022-09-09T02:25:00;12.65;;;7.10;;
66327;SDS011;53133;52.862;6.602;2022-09-09T02:27:28;10.02;;;6.68;;
66327;SDS011;53133;52.862;6.602;2022-09-09T02:29:54;11.50;;;6.57;;
66327;SDS011;53133;52.862;6.602;2022-09-09T02:32:23;12.20;;;7.13;;
66327;SDS011;53133;52.862;6.602;2022-09-09T02:34:56;15.15;;;7.25;;
66327;SDS011;53133;52.862;6.602;2022-09-09T02:37:28;10.85;;;6.25;;
66327;SDS011;53133;52.862;6.602;2022-09-09T02:40:00;9.18;;;6.30;;
66327;SDS011;53133;52.862;6.602;2022-09-09T02:42:27;10.15;;;6.00;;
66327;SDS011;53133;52.862;6.602;2022-09-09T02:44:53;10.50;;;6.78;;
66327;SDS011;53133;52.862;6.602;2022-09-09T02:47:26;7.45;;;5.80;;
66327;SDS011;53133;52.862;6.602;2022-09-09T02:50:02;10.30;;;6.47;;
66327;SDS011;53133;52.862;6.602;2022-09-09T02:55:07;9.15;;;7.05;;
66327;SDS011;53133;52.862;6.602;2022-09-09T02:57:57;10.35;;;7.18;;
66327;SDS011;53133;52.862;6.602;2022-09-09T03:00:24;10.68;;;6.28;;
66327;SDS011;53133;52.862;6.602;2022-09-09T03:02:52;9.75;;;6.50;;
66327;SDS011;53133;52.862;6.602;2022-09-09T03:05:19;11.57;;;6.78;;
66327;SDS011;53133;52.862;6.602;2022-09-09T03:07:45;10.30;;;6.63;;
66327;SDS011;53133;52.862;6.602;2022-09-09T03:10:11;9.65;;;6.57;;
66327;SDS011;53133;52.862;6.602;2022-09-09T03:12:37;11.32;;;6.40;;
66327;SDS011;53133;52.862;6.602;2022-09-09T03:15:03;11.13;;;6.30;;
66327;SDS011;53133;52.862;6.602;2022-09-09T03:17:30;8.65;;;6.15;;
66327;SDS011;53133;52.862;6.602;2022-09-09T03:19:55;8.45;;;6.10;;
66327;SDS011;53133;52.862;6.602;2022-09-09T03:22:22;10.23;;;6.28;;
66327;SDS011;53133;52.862;6.602;2022-09-09T03:24:48;10.63;;;6.10;;
66327;SDS011;53133;52.862;6.602;2022-09-09T03:27:14;10.95;;;6.95;;
66327;SDS011;53133;52.862;6.602;2022-09-09T03:29:39;9.10;;;6.78;;
66327;SDS011;53133;52.862;6.602;2022-09-09T03:32:05;11.98;;;7.25;;
66327;SDS011;53133;52.862;6.602;2022-09-09T03:34:31;11.38;;;7.07;;
66327;SDS011;53133;52.862;6.602;2022-09-09T03:36:56;11.48;;;7.72;;
66327;SDS011;53133;52.862;6.602;2022-09-09T03:39:22;13.13;;;7.05;;
66327;SDS011;53133;52.862;6.602;2022-09-09T03:41:48;11.38;;;6.90;;
66327;SDS011;53133;52.862;6.602;2022-09-09T03:44:14;12.90;;;7.30;;
66327;SDS011;53133;52.862;6.602;2022-09-09T03:46:39;8.77;;;6.63;;
66327;SDS011;53133;52.862;6.602;2022-09-09T03:49:05;9.75;;;6.68;;
66327;SDS011;53133;52.862;6.602;2022-09-09T03:51:30;9.20;;;7.00;;
66327;SDS011;53133;52.862;6.602;2022-09-09T03:53:56;12.52;;;8.32;;
66327;SDS011;53133;52.862;6.602;2022-09-09T03:56:23;11.77;;;7.82;;
66327;SDS011;53133;52.862;6.602;2022-09-09T03:58:49;11.73;;;8.10;;
66327;SDS011;53133;52.862;6.602;2022-09-09T04:01:15;11.27;;;7.93;;
66327;SDS011;53133;52.862;6.602;2022-09-09T04:03:42;14.50;;;7.93;;
66327;SDS011;53133;52.862;6.602;2022-09-09T04:06:10;12.10;;;8.07;;
66327;SDS011;53133;52.862;6.602;2022-09-09T04:08:38;11.93;;;8.07;;
66327;SDS011;53133;52.862;6.602;2022-09-09T04:11:05;13.18;;;8.27;;
66327;SDS011;53133;52.862;6.602;2022-09-09T04:13:31;13.38;;;7.80;;
66327;SDS011;53133;52.862;6.602;2022-09-09T04:16:05;16.17;;;8.15;;
66327;SDS011;53133;52.862;6.602;2022-09-09T04:18:31;13.07;;;8.65;;
66327;SDS011;53133;52.862;6.602;2022-09-09T04:20:57;14.68;;;7.97;;
66327;SDS011;53133;52.862;6.602;2022-09-09T04:23:23;11.93;;;8.82;;
66327;SDS011;53133;52.862;6.602;2022-09-09T04:25:51;11.45;;;8.75;;
66327;SDS011;53133;52.862;6.602;2022-09-09T04:28:19;16.35;;;9.23;;
66327;SDS011;53133;52.862;6.602;2022-09-09T04:30:47;14.13;;;9.18;;
66327;SDS011;53133;52.862;6.602;2022-09-09T04:33:13;13.63;;;8.65;;
66327;SDS011;53133;52.862;6.602;2022-09-09T04:35:39;14.60;;;9.05;;
66327;SDS011;53133;52.862;6.602;2022-09-09T04:38:09;16.20;;;10.13;;
66327;SDS011;53133;52.862;6.602;2022-09-09T04:40:35;14.45;;;9.35;;
66327;SDS011;53133;52.862;6.602;2022-09-09T04:43:01;13.85;;;9.98;;
66327;SDS011;53133;52.862;6.602;2022-09-09T04:45:31;16.50;;;10.38;;
66327;SDS011;53133;52.862;6.602;2022-09-09T04:47:57;13.75;;;9.82;;
66327;SDS011;53133;52.862;6.602;2022-09-09T04:50:22;11.98;;;9.20;;
66327;SDS011;53133;52.862;6.602;2022-09-09T04:52:48;13.05;;;9.40;;
66327;SDS011;53133;52.862;6.602;2022-09-09T04:55:14;14.27;;;9.63;;
66327;SDS011;53133;52.862;6.602;2022-09-09T04:57:39;14.40;;;9.35;;
66327;SDS011;53133;52.862;6.602;2022-09-09T05:00:05;13.23;;;9.18;;
66327;SDS011;53133;52.862;6.602;2022-09-09T05:02:32;12.52;;;9.05;;
66327;SDS011;53133;52.862;6.602;2022-09-09T05:04:58;14.55;;;9.50;;
66327;SDS011;53133;52.862;6.602;2022-09-09T05:07:26;11.95;;;8.80;;
66327;SDS011;53133;52.862;6.602;2022-09-09T05:09:52;12.60;;;9.10;;
66327;SDS011;53133;52.862;6.602;2022-09-09T05:12:17;15.07;;;9.27;;
66327;SDS011;53133;52.862;6.602;2022-09-09T05:14:43;13.05;;;9.23;;
66327;SDS011;53133;52.862;6.602;2022-09-09T05:17:09;13.13;;;9.45;;
66327;SDS011;53133;52.862;6.602;2022-09-09T05:19:35;13.15;;;8.75;;
66327;SDS011;53133;52.862;6.602;2022-09-09T05:22:01;13.68;;;9.35;;
66327;SDS011;53133;52.862;6.602;2022-09-09T05:24:27;13.95;;;9.48;;
66327;SDS011;53133;52.862;6.602;2022-09-09T05:26:53;11.57;;;9.35;;
66327;SDS011;53133;52.862;6.602;2022-09-09T05:29:18;13.95;;;9.32;;
66327;SDS011;53133;52.862;6.602;2022-09-09T05:31:44;12.88;;;9.32;;
66327;SDS011;53133;52.862;6.602;2022-09-09T05:34:10;14.38;;;9.05;;
66327;SDS011;53133;52.862;6.602;2022-09-09T05:36:36;12.82;;;8.93;;
66327;SDS011;53133;52.862;6.602;2022-09-09T05:39:02;13.15;;;9.38;;
66327;SDS011;53133;52.862;6.602;2022-09-09T05:41:28;14.25;;;9.07;;
66327;SDS011;53133;52.862;6.602;2022-09-09T05:43:54;11.85;;;9.13;;
66327;SDS011;53133;52.862;6.602;2022-09-09T05:46:21;13.68;;;8.98;;
66327;SDS011;53133;52.862;6.602;2022-09-09T05:48:48;12.15;;;8.40;;
66327;SDS011;53133;52.862;6.602;2022-09-09T05:51:19;13.43;;;9.23;;
66327;SDS011;53133;52.862;6.602;2022-09-09T05:53:46;16.77;;;9.15;;
66327;SDS011;53133;52.862;6.602;2022-09-09T05:56:14;17.90;;;9.30;;
66327;SDS011;53133;52.862;6.602;2022-09-09T05:58:42;15.20;;;9.63;;
66327;SDS011;53133;52.862;6.602;2022-09-09T06:01:22;14.13;;;9.10;;
66327;SDS011;53133;52.862;6.602;2022-09-09T06:03:52;12.85;;;8.95;;
66327;SDS011;53133;52.862;6.602;2022-09-09T06:06:19;13.07;;;8.98;;
66327;SDS011;53133;52.862;6.602;2022-09-09T06:08:51;13.10;;;9.00;;
66327;SDS011;53133;52.862;6.602;2022-09-09T06:11:22;12.85;;;9.25;;
66327;SDS011;53133;52.862;6.602;2022-09-09T06:13:49;14.20;;;9.40;;
66327;SDS011;53133;52.862;6.602;2022-09-09T06:16:19;11.60;;;8.98;;
66327;SDS011;53133;52.862;6.602;2022-09-09T06:18:48;12.02;;;8.77;;
66327;SDS011;53133;52.862;6.602;2022-09-09T06:23:44;13.05;;;9.07;;
66327;SDS011;53133;52.862;6.602;2022-09-09T06:26:11;11.90;;;8.75;;
66327;SDS011;53133;52.862;6.602;2022-09-09T06:28:39;13.15;;;8.48;;
66327;SDS011;53133;52.862;6.602;2022-09-09T06:31:09;10.52;;;8.52;;
66327;SDS011;53133;52.862;6.602;2022-09-09T06:33:39;13.23;;;8.55;;
66327;SDS011;53133;52.862;6.602;2022-09-09T06:36:12;12.13;;;8.30;;
66327;SDS011;53133;52.862;6.602;2022-09-09T06:38:44;10.85;;;8.23;;
66327;SDS011;53133;52.862;6.602;2022-09-09T06:41:11;11.88;;;8.07;;
66327;SDS011;53133;52.862;6.602;2022-09-09T06:43:38;11.95;;;7.95;;
66327;SDS011;53133;52.862;6.602;2022-09-09T06:46:05;10.93;;;7.63;;
66327;SDS011;53133;52.862;6.602;2022-09-09T06:48:36;13.63;;;8.00;;
66327;SDS011;53133;52.862;6.602;2022-09-09T06:53:30;10.68;;;7.95;;
66327;SDS011;53133;52.862;6.602;2022-09-09T06:55:58;9.18;;;7.72;;
66327;SDS011;53133;52.862;6.602;2022-09-09T06:58:42;9.88;;;7.03;;
66327;SDS011;53133;52.862;6.602;2022-09-09T07:01:11;12.45;;;8.15;;
66327;SDS011;53133;52.862;6.602;2022-09-09T07:03:39;12.40;;;7.85;;
66327;SDS011;53133;52.862;6.602;2022-09-09T07:06:05;10.85;;;7.53;;
66327;SDS011;53133;52.862;6.602;2022-09-09T07:08:32;11.95;;;7.57;;
66327;SDS011;53133;52.862;6.602;2022-09-09T07:11:04;10.38;;;7.10;;
66327;SDS011;53133;52.862;6.602;2022-09-09T07:13:31;10.00;;;6.82;;
66327;SDS011;53133;52.862;6.602;2022-09-09T07:16:07;9.48;;;7.20;;
66327;SDS011;53133;52.862;6.602;2022-09-09T07:18:34;8.75;;;6.95;;
66327;SDS011;53133;52.862;6.602;2022-09-09T07:21:00;9.63;;;6.30;;
66327;SDS011;53133;52.862;6.602;2022-09-09T07:23:27;13.10;;;7.50;;
66327;SDS011;53133;52.862;6.602;2022-09-09T07:25:54;10.68;;;6.70;;
66327;SDS011;53133;52.862;6.602;2022-09-09T07:28:19;8.43;;;6.72;;
66327;SDS011;53133;52.862;6.602;2022-09-09T07:30:59;14.25;;;7.40;;
66327;SDS011;53133;52.862;6.602;2022-09-09T07:33:29;9.80;;;6.80;;
66327;SDS011;53133;52.862;6.602;2022-09-09T07:36:01;11.35;;;6.90;;
66327;SDS011;53133;52.862;6.602;2022-09-09T07:38:28;8.60;;;6.40;;
66327;SDS011;53133;52.862;6.602;2022-09-09T07:41:01;11.32;;;7.25;;
66327;SDS011;53133;52.862;6.602;2022-09-09T07:43:29;11.38;;;7.15;;
66327;SDS011;53133;52.862;6.602;2022-09-09T07:45:57;9.57;;;6.55;;
66327;SDS011;53133;52.862;6.602;2022-09-09T07:48:23;10.48;;;6.40;;
66327;SDS011;53133;52.862;6.602;2022-09-09T07:50:49;10.98;;;7.03;;
66327;SDS011;53133;52.862;6.602;2022-09-09T07:53:16;11.60;;;6.88;;
66327;SDS011;53133;52.862;6.602;2022-09-09T07:55:41;16.48;;;7.25;;
66327;SDS011;53133;52.862;6.602;2022-09-09T07:58:07;11.82;;;6.80;;
66327;SDS011;53133;52.862;6.602;2022-09-09T08:00:33;10.57;;;7.20;;
66327;SDS011;53133;52.862;6.602;2022-09-09T08:02:58;12.52;;;8.07;;
66327;SDS011;53133;52.862;6.602;2022-09-09T08:05:27;11.93;;;7.68;;
66327;SDS011;53133;52.862;6.602;2022-09-09T08:07:53;12.27;;;8.07;;
66327;SDS011;53133;52.862;6.602;2022-09-09T08:10:18;13.65;;;7.55;;
66327;SDS011;53133;52.862;6.602;2022-09-09T08:12:44;13.18;;;7.57;;
66327;SDS011;53133;52.862;6.602;2022-09-09T08:15:10;11.40;;;7.10;;
66327;SDS011;53133;52.862;6.602;2022-09-09T08:17:36;11.48;;;7.50;;
66327;SDS011;53133;52.862;6.602;2022-09-09T08:20:03;10.93;;;7.90;;
66327;SDS011;53133;52.862;6.602;2022-09-09T08:22:31;12.65;;;8.10;;
66327;SDS011;53133;52.862;6.602;2022-09-09T08:24:56;14.77;;;7.78;;
66327;SDS011;53133;52.862;6.602;2022-09-09T08:27:22;11.68;;;7.72;;
66327;SDS011;53133;52.862;6.602;2022-09-09T08:29:49;11.82;;;7.20;;
66327;SDS011;53133;52.862;6.602;2022-09-09T08:32:14;12.90;;;7.40;;
66327;SDS011;53133;52.862;6.602;2022-09-09T08:34:41;13.18;;;7.60;;
66327;SDS011;53133;52.862;6.602;2022-09-09T08:37:07;11.93;;;7.38;;
66327;SDS011;53133;52.862;6.602;2022-09-09T08:39:32;11.95;;;7.47;;
66327;SDS011;53133;52.862;6.602;2022-09-09T08:53:26;11.95;;;6.90;;
66327;SDS011;53133;52.862;6.602;2022-09-09T08:58:11;12.15;;;6.32;;
66327;SDS011;53133;52.862;6.602;2022-09-09T09:03:26;9.95;;;5.70;;
66327;SDS011;53133;52.862;6.602;2022-09-09T09:11:10;13.02;;;6.00;;
66327;SDS011;53133;52.862;6.602;2022-09-09T09:13:41;11.93;;;4.93;;
66327;SDS011;53133;52.862;6.602;2022-09-09T09:16:33;11.52;;;5.35;;
66327;SDS011;53133;52.862;6.602;2022-09-09T09:19:03;12.73;;;5.30;;
66327;SDS011;53133;52.862;6.602;2022-09-09T09:24:07;9.65;;;5.03;;
66327;SDS011;53133;52.862;6.602;2022-09-09T09:26:41;11.38;;;4.93;;
66327;SDS011;53133;52.862;6.602;2022-09-09T09:29:10;10.88;;;4.72;;
66327;SDS011;53133;52.862;6.602;2022-09-09T09:31:51;11.73;;;4.68;;
66327;SDS011;53133;52.862;6.602;2022-09-09T09:34:21;8.07;;;4.47;;
66327;SDS011;53133;52.862;6.602;2022-09-09T09:36:56;9.20;;;4.35;;
66327;SDS011;53133;52.862;6.602;2022-09-09T09:39:24;12.57;;;4.63;;
66327;SDS011;53133;52.862;6.602;2022-09-09T09:42:15;11.68;;;4.03;;
66327;SDS011;53133;52.862;6.602;2022-09-09T09:44:42;14.10;;;4.50;;
66327;SDS011;53133;52.862;6.602;2022-09-09T09:47:12;8.70;;;3.78;;
66327;SDS011;53133;52.862;6.602;2022-09-09T09:49:59;11.73;;;4.30;;
66327;SDS011;53133;52.862;6.602;2022-09-09T09:52:28;7.78;;;3.97;;
66327;SDS011;53133;52.862;6.602;2022-09-09T09:54:55;17.55;;;4.60;;
66327;SDS011;53133;52.862;6.602;2022-09-09T09:57:23;12.80;;;3.60;;
66327;SDS011;53133;52.862;6.602;2022-09-09T10:02:31;8.98;;;3.40;;
66327;SDS011;53133;52.862;6.602;2022-09-09T10:05:14;7.53;;;3.53;;
66327;SDS011;53133;52.862;6.602;2022-09-09T10:08:01;12.30;;;3.05;;
66327;SDS011;53133;52.862;6.602;2022-09-09T10:10:33;7.57;;;3.05;;
66327;SDS011;53133;52.862;6.602;2022-09-09T10:16:12;9.45;;;3.20;;
66327;SDS011;53133;52.862;6.602;2022-09-09T10:19:18;12.98;;;3.30;;
66327;SDS011;53133;52.862;6.602;2022-09-09T10:24:45;11.07;;;3.42;;
66327;SDS011;53133;52.862;6.602;2022-09-09T10:30:16;8.40;;;2.80;;
66327;SDS011;53133;52.862;6.602;2022-09-09T10:35:46;10.80;;;3.50;;
66327;SDS011;53133;52.862;6.602;2022-09-09T10:38:24;7.95;;;3.08;;
66327;SDS011;53133;52.862;6.602;2022-09-09T10:41:18;9.57;;;3.33;;
66327;SDS011;53133;52.862;6.602;2022-09-09T10:52:40;6.85;;;2.55;;
66327;SDS011;53133;52.862;6.602;2022-09-09T10:56:12;8.65;;;2.60;;
66327;SDS011;53133;52.862;6.602;2022-09-09T11:01:13;6.55;;;2.63;;
66327;SDS011;53133;52.862;6.602;2022-09-09T11:03:51;9.18;;;2.70;;
66327;SDS011;53133;52.862;6.602;2022-09-09T11:06:40;8.65;;;2.50;;
66327;SDS011;53133;52.862;6.602;2022-09-09T11:09:13;7.63;;;2.22;;
66327;SDS011;53133;52.862;6.602;2022-09-09T11:11:44;6.72;;;2.53;;
66327;SDS011;53133;52.862;6.602;2022-09-09T11:16:50;7.28;;;2.08;;
66327;SDS011;53133;52.862;6.602;2022-09-09T11:19:35;11.13;;;2.75;;
66327;SDS011;53133;52.862;6.602;2022-09-09T11:22:08;6.38;;;2.47;;
66327;SDS011;53133;52.862;6.602;2022-09-09T11:27:19;5.65;;;2.40;;
66327;SDS011;53133;52.862;6.602;2022-09-09T11:32:49;5.47;;;2.22;;
66327;SDS011;53133;52.862;6.602;2022-09-09T11:36:00;6.00;;;2.13;;
66327;SDS011;53133;52.862;6.602;2022-09-09T11:38:49;6.18;;;2.35;;
66327;SDS011;53133;52.862;6.602;2022-09-09T11:41:16;7.00;;;2.17;;
66327;SDS011;53133;52.862;6.602;2022-09-09T11:43:46;6.90;;;2.40;;
66327;SDS011;53133;52.862;6.602;2022-09-09T11:46:16;6.67;;;2.23;;
66327;SDS011;53133;52.862;6.602;2022-09-09T11:48:45;9.13;;;2.90;;
66327;SDS011;53133;52.862;6.602;2022-09-09T11:53:53;6.45;;;2.33;;
66327;SDS011;53133;52.862;6.602;2022-09-09T11:56:34;6.65;;;2.28;;
66327;SDS011;53133;52.862;6.602;2022-09-09T11:59:25;7.50;;;2.22;;
66327;SDS011;53133;52.862;6.602;2022-09-09T12:04:30;5.50;;;2.35;;
66327;SDS011;53133;52.862;6.602;2022-09-09T12:09:46;9.38;;;2.55;;
66327;SDS011;53133;52.862;6.602;2022-09-09T12:12:22;6.93;;;2.38;;
66327;SDS011;53133;52.862;6.602;2022-09-09T12:17:25;6.97;;;2.20;;
66327;SDS011;53133;52.862;6.602;2022-09-09T12:22:37;8.52;;;2.38;;
66327;SDS011;53133;52.862;6.602;2022-09-09T12:28:22;5.30;;;1.73;;
66327;SDS011;53133;52.862;6.602;2022-09-09T12:31:01;9.45;;;2.10;;
66327;SDS011;53133;52.862;6.602;2022-09-09T12:33:36;5.40;;;2.10;;
66327;SDS011;53133;52.862;6.602;2022-09-09T12:36:05;4.88;;;2.10;;
66327;SDS011;53133;52.862;6.602;2022-09-09T12:38:38;5.55;;;1.85;;
66327;SDS011;53133;52.862;6.602;2022-09-09T12:41:05;7.35;;;2.42;;
66327;SDS011;53133;52.862;6.602;2022-09-09T12:43:44;5.38;;;2.25;;
66327;SDS011;53133;52.862;6.602;2022-09-09T12:46:12;5.35;;;1.88;;
66327;SDS011;53133;52.862;6.602;2022-09-09T12:48:48;5.25;;;2.00;;
66327;SDS011;53133;52.862;6.602;2022-09-09T12:51:27;6.40;;;2.03;;
66327;SDS011;53133;52.862;6.602;2022-09-09T12:53:55;6.38;;;2.15;;
66327;SDS011;53133;52.862;6.602;2022-09-09T12:56:22;7.68;;;1.77;;
66327;SDS011;53133;52.862;6.602;2022-09-09T12:58:52;7.28;;;2.30;;
66327;SDS011;53133;52.862;6.602;2022-09-09T13:01:20;6.00;;;2.22;;
66327;SDS011;53133;52.862;6.602;2022-09-09T13:03:54;10.38;;;2.95;;
66327;SDS011;53133;52.862;6.602;2022-09-09T13:06:24;6.53;;;2.83;;
66327;SDS011;53133;52.862;6.602;2022-09-09T13:08:58;6.30;;;2.58;;
66327;SDS011;53133;52.862;6.602;2022-09-09T13:11:36;6.50;;;2.63;;
66327;SDS011;53133;52.862;6.602;2022-09-09T13:14:12;6.03;;;2.30;;
66327;SDS011;53133;52.862;6.602;2022-09-09T13:16:53;6.15;;;2.60;;
66327;SDS011;53133;52.862;6.602;2022-09-09T13:19:24;5.32;;;2.15;;
66327;SDS011;53133;52.862;6.602;2022-09-09T13:21:53;8.73;;;2.50;;
66327;SDS011;53133;52.862;6.602;2022-09-09T13:24:32;4.85;;;2.22;;
66327;SDS011;53133;52.862;6.602;2022-09-09T13:27:04;7.07;;;2.50;;
66327;SDS011;53133;52.862;6.602;2022-09-09T13:29:52;7.28;;;2.63;;
66327;SDS011;53133;52.862;6.602;2022-09-09T13:32:22;7.63;;;2.47;;
66327;SDS011;53133;52.862;6.602;2022-09-09T13:34:57;6.22;;;2.58;;
66327;SDS011;53133;52.862;6.602;2022-09-09T13:37:39;6.43;;;2.30;;
66327;SDS011;53133;52.862;6.602;2022-09-09T13:40:17;7.43;;;2.40;;
66327;SDS011;53133;52.862;6.602;2022-09-09T13:42:44;5.38;;;2.00;;
66327;SDS011;53133;52.862;6.602;2022-09-09T13:45:19;4.55;;;2.03;;
66327;SDS011;53133;52.862;6.602;2022-09-09T13:47:48;4.78;;;1.90;;
66327;SDS011;53133;52.862;6.602;2022-09-09T13:50:27;5.03;;;1.85;;
66327;SDS011;53133;52.862;6.602;2022-09-09T13:52:54;5.05;;;1.90;;
66327;SDS011;53133;52.862;6.602;2022-09-09T13:55:23;7.18;;;1.85;;
66327;SDS011;53133;52.862;6.602;2022-09-09T13:57:58;4.00;;;1.70;;
66327;SDS011;53133;52.862;6.602;2022-09-09T14:00:25;4.88;;;1.75;;
66327;SDS011;53133;52.862;6.602;2022-09-09T14:02:50;6.35;;;2.10;;
66327;SDS011;53133;52.862;6.602;2022-09-09T14:05:17;8.75;;;2.45;;
66327;SDS011;53133;52.862;6.602;2022-09-09T14:07:43;4.40;;;1.63;;
66327;SDS011;53133;52.862;6.602;2022-09-09T14:10:10;4.20;;;2.00;;
66327;SDS011;53133;52.862;6.602;2022-09-09T14:12:36;3.90;;;1.30;;
66327;SDS011;53133;52.862;6.602;2022-09-09T14:15:03;3.92;;;1.35;;
66327;SDS011;53133;52.862;6.602;2022-09-09T14:17:29;3.28;;;1.13;;
66327;SDS011;53133;52.862;6.602;2022-09-09T14:19:56;3.28;;;1.30;;
66327;SDS011;53133;52.862;6.602;2022-09-09T14:22:22;4.43;;;1.38;;
66327;SDS011;53133;52.862;6.602;2022-09-09T14:24:48;2.47;;;1.10;;
66327;SDS011;53133;52.862;6.602;2022-09-09T14:27:14;2.58;;;1.00;;
66327;SDS011;53133;52.862;6.602;2022-09-09T14:29:40;2.67;;;1.02;;
66327;SDS011;53133;52.862;6.602;2022-09-09T14:32:07;2.10;;;0.95;;
66327;SDS011;53133;52.862;6.602;2022-09-09T14:34:32;2.42;;;1.05;;
66327;SDS011;53133;52.862;6.602;2022-09-09T14:36:58;3.38;;;1.30;;
66327;SDS011;53133;52.862;6.602;2022-09-09T14:39:24;2.85;;;1.10;;
66327;SDS011;53133;52.862;6.602;2022-09-09T14:41:49;3.05;;;1.20;;
66327;SDS011;53133;52.862;6.602;2022-09-09T14:44:15;2.50;;;1.40;;
66327;SDS011;53133;52.862;6.602;2022-09-09T14:46:43;5.40;;;1.50;;
66327;SDS011;53133;52.862;6.602;2022-09-09T14:49:09;3.10;;;1.40;;
66327;SDS011;53133;52.862;6.602;2022-09-09T14:51:35;4.68;;;1.67;;
66327;SDS011;53133;52.862;6.602;2022-09-09T14:54:01;4.07;;;1.63;;
66327;SDS011;53133;52.862;6.602;2022-09-09T14:56:30;2.90;;;1.52;;
66327;SDS011;53133;52.862;6.602;2022-09-09T14:58:57;4.65;;;1.50;;
66327;SDS011;53133;52.862;6.602;2022-09-09T15:01:25;7.65;;;1.83;;
66327;SDS011;53133;52.862;6.602;2022-09-09T15:06:24;4.38;;;1.90;;
66327;SDS011;53133;52.862;6.602;2022-09-09T15:08:51;3.47;;;1.52;;
66327;SDS011;53133;52.862;6.602;2022-09-09T15:11:18;3.42;;;1.50;;
66327;SDS011;53133;52.862;6.602;2022-09-09T15:13:45;3.67;;;1.85;;
66327;SDS011;53133;52.862;6.602;2022-09-09T15:16:18;3.22;;;1.30;;
66327;SDS011;53133;52.862;6.602;2022-09-09T15:18:45;2.70;;;1.60;;
66327;SDS011;53133;52.862;6.602;2022-09-09T15:21:12;4.20;;;1.38;;
66327;SDS011;53133;52.862;6.602;2022-09-09T15:23:40;3.03;;;1.33;;
66327;SDS011;53133;52.862;6.602;2022-09-09T15:26:06;2.40;;;1.42;;
66327;SDS011;53133;52.862;6.602;2022-09-09T15:28:33;3.42;;;1.45;;
66327;SDS011;53133;52.862;6.602;2022-09-09T15:31:11;2.65;;;1.60;;
66327;SDS011;53133;52.862;6.602;2022-09-09T15:33:50;4.38;;;1.75;;
66327;SDS011;53133;52.862;6.602;2022-09-09T15:36:22;7.07;;;1.83;;
66327;SDS011;53133;52.862;6.602;2022-09-09T15:41:16;3.65;;;1.67;;
66327;SDS011;53133;52.862;6.602;2022-09-09T15:43:46;6.38;;;1.90;;
66327;SDS011;53133;52.862;6.602;2022-09-09T15:48:43;4.35;;;1.60;;
66327;SDS011;53133;52.862;6.602;2022-09-09T15:51:10;2.88;;;1.60;;
66327;SDS011;53133;52.862;6.602;2022-09-09T15:53:38;6.68;;;2.03;;
66327;SDS011;53133;52.862;6.602;2022-09-09T15:56:05;3.30;;;1.88;;
66327;SDS011;53133;52.862;6.602;2022-09-09T15:58:31;2.38;;;1.60;;
66327;SDS011;53133;52.862;6.602;2022-09-09T16:01:07;5.15;;;1.90;;
66327;SDS011;53133;52.862;6.602;2022-09-09T16:03:34;5.43;;;2.28;;
66327;SDS011;53133;52.862;6.602;2022-09-09T16:06:00;3.90;;;1.90;;
66327;SDS011;53133;52.862;6.602;2022-09-09T16:08:31;5.20;;;2.00;;
66327;SDS011;53133;52.862;6.602;2022-09-09T16:11:07;3.97;;;2.30;;
66327;SDS011;53133;52.862;6.602;2022-09-09T16:13:37;4.03;;;2.40;;
66327;SDS011;53133;52.862;6.602;2022-09-09T16:16:04;3.97;;;2.13;;
66327;SDS011;53133;52.862;6.602;2022-09-09T16:18:35;3.88;;;2.58;;
66327;SDS011;53133;52.862;6.602;2022-09-09T16:21:01;4.68;;;2.17;;
66327;SDS011;53133;52.862;6.602;2022-09-09T16:23:29;2.95;;;2.22;;
66327;SDS011;53133;52.862;6.602;2022-09-09T16:26:04;5.40;;;2.20;;
66327;SDS011;53133;52.862;6.602;2022-09-09T16:28:30;3.42;;;2.20;;
66327;SDS011;53133;52.862;6.602;2022-09-09T16:30:56;4.68;;;2.00;;
66327;SDS011;53133;52.862;6.602;2022-09-09T16:33:25;4.72;;;2.38;;
66327;SDS011;53133;52.862;6.602;2022-09-09T16:35:51;5.82;;;2.35;;
66327;SDS011;53133;52.862;6.602;2022-09-09T16:38:17;4.28;;;2.20;;
66327;SDS011;53133;52.862;6.602;2022-09-09T16:40:42;5.05;;;2.33;;
66327;SDS011;53133;52.862;6.602;2022-09-09T16:43:09;3.75;;;2.25;;
66327;SDS011;53133;52.862;6.602;2022-09-09T16:45:43;6.68;;;2.40;;
66327;SDS011;53133;52.862;6.602;2022-09-09T16:48:10;4.55;;;2.83;;
66327;SDS011;53133;52.862;6.602;2022-09-09T16:50:37;6.13;;;2.47;;
66327;SDS011;53133;52.862;6.602;2022-09-09T16:53:04;6.25;;;2.60;;
66327;SDS011;53133;52.862;6.602;2022-09-09T16:55:31;3.95;;;1.85;;
66327;SDS011;53133;52.862;6.602;2022-09-09T16:57:57;3.70;;;2.30;;
66327;SDS011;53133;52.862;6.602;2022-09-09T17:00:22;3.92;;;2.42;;
66327;SDS011;53133;52.862;6.602;2022-09-09T17:02:48;4.93;;;2.55;;